Vremea acum in Mioveni - Romania

Vrei sa afli care e starea vremii acum in Arges - Romania? Dorim sa iti furnizam starea vremii pentru Arges - Romania. Starea vremii Arges - Romania pentru astazi.

Vremea acum in Mioveni

Temperatura: 23.8 °C

Este: Senin
Se simte ca: 24 °C
Innorat: 16 %
Precipitatii: %
Presiune atmosferica: 1013 hPa
Umiditate: 30%
Vizibilitate: 10 km
Vantul bate din WSW cu 12.6 km/h

Evolutia vremii in Mioveni pe ore

Ora: 21:00
Temperatura: °C
Sansa de precipitatii: %
Ora Descriere Temp Se simte Precipitatii Umiditate Vant
00:00Senin13.1°12.5°0%61%NE 9 KM/H
01:00Senin12.1°11.2°0%63%NE 9.7 KM/H
02:00Senin11.6°10.7°0%64%NE 9.4 KM/H
03:00Senin11.5°10.7°0%66%NE 8.3 KM/H
04:00Senin11.1°10.4°0%66%NNE 7.6 KM/H
05:00Senin10.3°9.7°0%66%N 6.5 KM/H
06:00Senin10.3°9.5°0%66%N 7.2 KM/H
07:00Senin11.5°11°0%62%N 6.8 KM/H
08:00Senin14.2°14.4°0%53%NNW 5.4 KM/H
09:00Senin16.7°16.7°0%46%WNW 4.3 KM/H
10:00Senin18.6°18.6°0%41%W 7.9 KM/H
11:00Senin20.6°20.6°0%36%WSW 9 KM/H
12:00Senin21.9°21.9°0%32%WSW 11.2 KM/H
13:00Senin23.8°24°0%30%WSW 12.6 KM/H
14:00Senin24.7°24.4°0%29%W 13.7 KM/H
15:00Senin25.5°25°0%29%W 13 KM/H
16:00Senin25.4°25°0%31%W 13.3 KM/H
17:00Senin23.7°24.4°0%36%W 10.4 KM/H
18:00Senin21.5°21.5°0%45%W 8.3 KM/H
19:00Senin20°20°0%50%WNW 5.8 KM/H
20:00Senin19.2°19.2°0%50%NW 5.4 KM/H
21:00Senin18.5°18.5°0%52%NNW 4.7 KM/H
22:00Senin17.9°17.9°0%54%NNW 3.6 KM/H
23:00Senin17.3°17.3°0%56%NNW 5.8 KM/H




tutorials